createdAt,value
2019-03-23T00:00:06.467Z,4.57
2019-03-23T00:02:35.334Z,4.53
2019-03-23T00:05:06.159Z,7.43
2019-03-23T00:07:35.019Z,3.37
2019-03-23T00:10:04.987Z,4.17
2019-03-23T00:12:33.812Z,4.10
2019-03-23T00:15:02.676Z,4.63
2019-03-23T00:17:31.532Z,4.93
2019-03-23T00:20:00.362Z,3.33
2019-03-23T00:22:29.319Z,3.87
2019-03-23T00:24:58.188Z,5.10
2019-03-23T00:27:27.005Z,2.83
2019-03-23T00:29:55.875Z,4.87
2019-03-23T00:32:24.730Z,4.27
2019-03-23T00:34:53.556Z,3.73
2019-03-23T00:37:22.420Z,3.07
2019-03-23T00:39:51.320Z,3.37
2019-03-23T00:42:20.103Z,3.03
2019-03-23T00:44:48.969Z,2.83
2019-03-23T00:47:17.840Z,3.67
2019-03-23T00:49:46.654Z,3.57
2019-03-23T00:52:15.520Z,3.20
2019-03-23T00:54:44.386Z,3.97
2019-03-23T00:57:13.211Z,3.40
2019-03-23T00:59:42.078Z,3.37
2019-03-23T01:02:10.943Z,5.83
2019-03-23T01:04:39.775Z,3.60
2019-03-23T01:07:08.631Z,5.03
2019-03-23T01:09:37.503Z,7.43
2019-03-23T01:12:06.336Z,3.93
2019-03-23T01:14:35.195Z,4.90
2019-03-23T01:17:04.070Z,5.23
2019-03-23T01:19:32.882Z,6.23
2019-03-23T01:22:01.747Z,5.27
2019-03-23T01:24:30.655Z,5.43
2019-03-23T01:26:59.483Z,7.27
2019-03-23T01:29:28.347Z,4.33
2019-03-23T01:31:57.209Z,5.23
2019-03-23T01:34:26.031Z,4.23
2019-03-23T01:37:02.498Z,3.43
2019-03-23T01:39:25.416Z,5.17
2019-03-23T01:41:54.231Z,4.20
2019-03-23T01:44:23.091Z,4.63
2019-03-23T01:46:51.959Z,4.17
2019-03-23T01:49:20.776Z,3.90
2019-03-23T01:51:49.629Z,4.07
2019-03-23T01:54:18.500Z,5.63
2019-03-23T01:56:47.325Z,5.90
2019-03-23T01:59:16.185Z,6.87
2019-03-23T02:01:45.047Z,5.00
2019-03-23T02:04:13.872Z,5.33
2019-03-23T02:06:42.743Z,6.60
2019-03-23T02:09:11.599Z,4.83
2019-03-23T02:11:40.432Z,6.77
2019-03-23T02:14:09.301Z,4.83
2019-03-23T02:16:38.155Z,6.40
2019-03-23T02:19:06.999Z,7.23
2019-03-23T02:21:35.846Z,5.10
2019-03-23T02:24:04.715Z,4.40
2019-03-23T02:26:33.539Z,5.90
2019-03-23T02:29:02.407Z,8.47
2019-03-23T02:31:31.261Z,4.87
2019-03-23T02:34:00.088Z,5.10
2019-03-23T02:36:28.959Z,8.00
2019-03-23T02:38:57.824Z,7.13
2019-03-23T02:41:26.667Z,6.07
2019-03-23T02:43:55.508Z,6.50
2019-03-23T02:46:24.379Z,7.33
2019-03-23T02:48:53.203Z,6.93
2019-03-23T02:51:22.055Z,4.97
2019-03-23T02:53:50.923Z,6.53
2019-03-23T02:56:19.756Z,6.60
2019-03-23T02:58:48.622Z,7.00
2019-03-23T03:01:17.494Z,6.37
2019-03-23T03:03:46.325Z,7.03
2019-03-23T03:06:15.209Z,5.57
2019-03-23T03:08:44.049Z,8.17
2019-03-23T03:11:12.879Z,5.27
2019-03-23T03:13:41.761Z,6.30
2019-03-23T03:16:10.624Z,5.37
2019-03-23T03:18:39.452Z,5.10
2019-03-23T03:21:08.317Z,6.30
2019-03-23T03:23:37.187Z,5.73
2019-03-23T03:26:06.024Z,5.73
2019-03-23T03:28:35.091Z,4.53
2019-03-23T03:31:03.949Z,5.20
2019-03-23T03:33:32.776Z,9.43
2019-03-23T03:36:01.646Z,5.00
2019-03-23T03:38:30.517Z,5.97
2019-03-23T03:40:59.343Z,5.23
2019-03-23T03:43:28.213Z,4.97
2019-03-23T03:45:57.072Z,6.03
2019-03-23T03:48:25.907Z,6.13
2019-03-23T03:50:54.775Z,6.37
2019-03-23T03:53:23.656Z,5.27
2019-03-23T03:55:52.483Z,4.30
2019-03-23T03:58:21.347Z,6.27
2019-03-23T04:00:50.217Z,4.13
2019-03-23T04:03:19.048Z,6.10
2019-03-23T04:05:47.911Z,4.63
2019-03-23T04:08:16.790Z,4.50
2019-03-23T04:10:45.614Z,5.43
2019-03-23T04:13:14.489Z,5.03
2019-03-23T04:15:43.354Z,4.93
2019-03-23T04:18:12.183Z,4.53
2019-03-23T04:20:41.051Z,5.63
2019-03-23T04:23:09.923Z,5.23
2019-03-23T04:25:38.751Z,8.03
2019-03-23T04:28:07.626Z,7.20
2019-03-23T04:30:36.493Z,5.27
2019-03-23T04:33:05.315Z,7.07
2019-03-23T04:35:34.183Z,6.03
2019-03-23T04:38:03.047Z,5.77
2019-03-23T04:40:31.881Z,8.10
2019-03-23T04:43:00.748Z,3.97
2019-03-23T04:45:29.619Z,4.73
2019-03-23T04:47:58.443Z,6.87
2019-03-23T04:50:27.311Z,7.20
2019-03-23T04:52:56.172Z,6.23
2019-03-23T04:55:24.997Z,4.80
2019-03-23T04:57:53.867Z,4.50
2019-03-23T05:00:22.734Z,6.73
2019-03-23T05:02:51.564Z,4.60
2019-03-23T05:05:20.432Z,6.23
2019-03-23T05:07:49.308Z,5.63
2019-03-23T05:10:18.135Z,4.50
2019-03-23T05:12:46.991Z,5.30
2019-03-23T05:15:15.864Z,7.53
2019-03-23T05:17:44.689Z,5.10
2019-03-23T05:20:28.360Z,5.17
2019-03-23T05:22:57.322Z,6.50
2019-03-23T05:25:27.752Z,7.33
2019-03-23T05:27:57.117Z,5.60
2019-03-23T05:30:25.981Z,9.00
2019-03-23T05:32:54.816Z,10.17
2019-03-23T05:35:23.677Z,6.07
2019-03-23T05:37:52.541Z,7.07
2019-03-23T05:40:21.376Z,6.17
2019-03-23T05:42:50.244Z,5.83
2019-03-23T05:45:19.116Z,5.63
2019-03-23T05:47:47.939Z,4.60
2019-03-23T05:50:16.799Z,6.03
2019-03-23T05:52:45.676Z,4.80
2019-03-23T05:55:14.595Z,5.97
2019-03-23T05:57:43.481Z,6.80
2019-03-23T06:00:14.215Z,8.03
2019-03-23T06:02:43.041Z,7.83
2019-03-23T06:05:11.930Z,6.23
2019-03-23T06:07:40.774Z,5.93
2019-03-23T06:10:09.605Z,4.90
2019-03-23T06:12:38.472Z,7.33
2019-03-23T06:15:07.846Z,7.00
2019-03-23T06:17:36.671Z,6.37
2019-03-23T06:20:07.446Z,5.90
2019-03-23T06:22:36.310Z,6.90
2019-03-23T06:25:07.013Z,5.67
2019-03-23T06:27:35.871Z,6.47
2019-03-23T06:30:06.434Z,7.40
2019-03-23T06:32:35.364Z,7.17
2019-03-23T06:35:05.702Z,8.00
2019-03-23T06:37:34.568Z,7.10
2019-03-23T06:40:05.004Z,6.27
2019-03-23T06:42:33.869Z,7.00
2019-03-23T06:45:02.844Z,7.13
2019-03-23T06:47:31.671Z,10.00
2019-03-23T06:50:00.533Z,8.37
2019-03-23T06:52:29.402Z,7.17
2019-03-23T06:54:58.220Z,7.53
2019-03-23T06:57:27.087Z,7.37
2019-03-23T06:59:55.955Z,8.20
2019-03-23T07:02:24.795Z,10.03
2019-03-23T07:04:53.664Z,11.53
2019-03-23T07:07:22.535Z,9.33
2019-03-23T07:09:51.356Z,9.70
2019-03-23T07:12:20.230Z,11.73
2019-03-23T07:14:49.073Z,11.80
2019-03-23T07:17:17.895Z,9.87
2019-03-23T07:19:46.779Z,13.93
2019-03-23T07:22:15.648Z,9.70
2019-03-23T07:24:59.729Z,11.90
2019-03-23T07:27:28.602Z,14.13
2019-03-23T07:29:57.432Z,12.87
2019-03-23T07:32:26.306Z,12.27
2019-03-23T07:34:55.138Z,13.70
2019-03-23T07:37:23.971Z,14.50
2019-03-23T07:39:52.840Z,10.53
2019-03-23T07:42:21.716Z,11.37
2019-03-23T07:44:50.548Z,13.10
2019-03-23T07:47:19.424Z,12.43
2019-03-23T07:49:48.295Z,14.97
2019-03-23T07:52:17.123Z,12.10
2019-03-23T07:54:45.990Z,11.97
2019-03-23T07:57:14.870Z,12.70
2019-03-23T07:59:43.739Z,10.97
2019-03-23T08:02:12.567Z,12.73
2019-03-23T08:04:41.460Z,13.90
2019-03-23T08:07:10.278Z,10.63
2019-03-23T08:09:39.124Z,12.77
2019-03-23T08:12:11.012Z,12.67
2019-03-23T08:14:39.884Z,13.43
2019-03-23T08:17:08.723Z,19.43
2019-03-23T08:19:37.604Z,13.97
2019-03-23T08:22:08.032Z,13.97
2019-03-23T08:24:37.097Z,14.60
2019-03-23T08:27:06.004Z,14.50
2019-03-23T08:29:34.864Z,17.50
2019-03-23T08:32:03.841Z,14.00
2019-03-23T08:34:32.817Z,18.57
2019-03-23T08:37:02.197Z,14.07
2019-03-23T08:39:31.127Z,19.07
2019-03-23T08:42:00.079Z,20.97
2019-03-23T08:44:28.947Z,20.20
2019-03-23T08:46:59.077Z,18.00
2019-03-23T08:49:28.712Z,21.27
2019-03-23T08:51:57.706Z,20.37
2019-03-23T08:54:26.543Z,21.80
2019-03-23T08:56:55.623Z,21.53
2019-03-23T08:59:24.681Z,21.83
2019-03-23T09:01:53.507Z,18.77
2019-03-23T09:04:22.378Z,23.07
2019-03-23T09:06:51.273Z,23.43
2019-03-23T09:09:20.115Z,19.20
2019-03-23T09:11:48.988Z,21.23
2019-03-23T09:14:17.864Z,22.37
2019-03-23T09:16:46.700Z,21.23
2019-03-23T09:19:15.581Z,21.50
2019-03-23T09:21:44.458Z,19.60
2019-03-23T09:24:13.318Z,19.17
2019-03-23T09:26:42.200Z,22.33
2019-03-23T09:29:11.028Z,21.33
2019-03-23T09:31:39.911Z,20.10
2019-03-23T09:34:08.797Z,20.43
2019-03-23T09:36:37.639Z,20.07
2019-03-23T09:39:07.584Z,23.43
2019-03-23T09:41:36.454Z,23.27
2019-03-23T09:44:05.305Z,23.63
2019-03-23T09:46:34.178Z,22.07
2019-03-23T09:49:03.162Z,21.93
2019-03-23T09:51:32.156Z,21.53
2019-03-23T09:54:00.968Z,24.00
2019-03-23T09:56:29.847Z,21.63
2019-03-23T09:58:58.692Z,23.47
2019-03-23T10:01:27.555Z,25.90
2019-03-23T10:03:56.386Z,23.37
2019-03-23T10:06:25.266Z,20.73
2019-03-23T10:08:54.191Z,22.10
2019-03-23T10:11:23.162Z,21.47
2019-03-23T10:13:52.052Z,20.63
2019-03-23T10:16:20.948Z,22.67
2019-03-23T10:18:49.963Z,22.93
2019-03-23T10:21:18.955Z,23.50
2019-03-23T10:23:47.947Z,23.70
2019-03-23T10:26:16.837Z,22.73
2019-03-23T10:28:45.730Z,24.73
2019-03-23T10:31:14.548Z,24.90
2019-03-23T10:33:43.419Z,29.23
2019-03-23T10:36:12.358Z,22.10
2019-03-23T10:38:41.235Z,27.77
2019-03-23T10:41:10.070Z,24.23
2019-03-23T10:43:39.126Z,24.03
2019-03-23T10:46:08.172Z,27.80
2019-03-23T10:48:37.044Z,26.00
2019-03-23T10:51:05.933Z,29.00
2019-03-23T10:53:35.049Z,25.17
2019-03-23T10:56:03.940Z,24.30
2019-03-23T10:58:32.832Z,25.40
2019-03-23T11:01:01.724Z,27.57
2019-03-23T11:03:30.614Z,30.57
2019-03-23T11:05:59.507Z,25.20
2019-03-23T11:08:28.374Z,27.30
2019-03-23T11:10:57.263Z,28.40
2019-03-23T11:13:26.281Z,30.13
2019-03-23T11:15:55.172Z,28.00
2019-03-23T11:18:24.167Z,26.40
2019-03-23T11:20:53.368Z,32.03
2019-03-23T11:23:22.256Z,30.40
2019-03-23T11:25:51.148Z,29.00
2019-03-23T11:28:20.140Z,28.37
2019-03-23T11:30:49.032Z,28.07
2019-03-23T11:33:17.924Z,28.60
2019-03-23T11:35:46.814Z,26.80
2019-03-23T11:38:15.705Z,24.97
2019-03-23T11:40:52.755Z,21.53
2019-03-23T11:43:15.229Z,27.87
2019-03-23T11:45:44.039Z,27.80
2019-03-23T11:48:12.929Z,25.03
2019-03-23T11:50:41.801Z,25.07
2019-03-23T11:53:10.666Z,27.00
2019-03-23T11:55:39.558Z,27.43
2019-03-23T11:58:08.576Z,26.00
2019-03-23T12:00:37.674Z,24.40
2019-03-23T12:03:06.666Z,26.27
2019-03-23T12:05:35.557Z,25.80
2019-03-23T12:08:04.550Z,22.67
2019-03-23T12:10:33.424Z,26.07
2019-03-23T12:13:02.334Z,27.70
2019-03-23T12:15:31.201Z,28.13
2019-03-23T12:18:01.943Z,25.60
2019-03-23T12:20:30.851Z,28.37
2019-03-23T12:22:59.719Z,27.43
2019-03-23T12:25:28.616Z,27.00
2019-03-23T12:27:57.524Z,27.00
2019-03-23T12:30:26.445Z,27.53
2019-03-23T12:32:55.429Z,25.50
2019-03-23T12:35:24.321Z,24.67
2019-03-23T12:37:53.171Z,28.03
2019-03-23T12:40:22.046Z,26.67
2019-03-23T12:42:50.881Z,25.33
2019-03-23T12:45:19.754Z,23.57
2019-03-23T12:47:48.583Z,27.50
2019-03-23T12:50:17.463Z,24.60
2019-03-23T12:52:46.537Z,26.43
2019-03-23T12:55:15.429Z,25.67
2019-03-23T12:57:44.301Z,24.60
2019-03-23T13:00:15.489Z,26.73
2019-03-23T13:02:44.356Z,25.20
2019-03-23T13:05:13.251Z,26.77
2019-03-23T13:07:42.065Z,26.17
2019-03-23T13:10:12.948Z,27.57
2019-03-23T13:12:41.792Z,31.43
2019-03-23T13:15:13.072Z,26.03
2019-03-23T13:17:42.005Z,29.60
2019-03-23T13:20:11.257Z,25.83
2019-03-23T13:22:40.504Z,24.30
2019-03-23T13:25:09.858Z,24.43
2019-03-23T13:27:38.900Z,24.67
2019-03-23T13:30:13.325Z,26.13
2019-03-23T13:32:42.316Z,25.50
2019-03-23T13:35:11.495Z,27.80
2019-03-23T13:37:40.509Z,26.13
2019-03-23T13:40:11.394Z,26.13
2019-03-23T13:42:40.270Z,27.60
2019-03-23T13:45:10.015Z,26.50
2019-03-23T13:47:39.597Z,30.30
2019-03-23T13:50:09.532Z,27.00
2019-03-23T13:52:38.424Z,29.03
2019-03-23T13:55:09.831Z,28.93
2019-03-23T13:57:38.708Z,25.77
2019-03-23T14:00:10.836Z,25.40
2019-03-23T14:02:39.712Z,27.90
2019-03-23T14:05:15.779Z,27.73
2019-03-23T14:07:39.083Z,26.83
2019-03-23T14:10:08.119Z,26.50
2019-03-23T14:12:36.990Z,28.90
2019-03-23T14:15:07.729Z,27.03
2019-03-23T14:17:36.615Z,25.57
2019-03-23T14:20:08.593Z,28.83
2019-03-23T14:22:37.456Z,25.23
2019-03-23T14:25:07.413Z,25.23
2019-03-23T14:27:36.284Z,25.40
2019-03-23T14:30:07.097Z,24.27
2019-03-23T14:32:35.976Z,23.37
2019-03-23T14:35:05.614Z,22.30
2019-03-23T14:37:34.499Z,25.40
2019-03-23T14:40:03.336Z,25.17
2019-03-23T14:42:32.223Z,23.13
2019-03-23T14:45:01.048Z,21.13
2019-03-23T14:47:29.931Z,21.83
2019-03-23T14:49:58.764Z,25.50
2019-03-23T14:52:27.640Z,24.77
2019-03-23T14:54:56.480Z,21.57
2019-03-23T14:57:25.356Z,25.77
2019-03-23T14:59:54.192Z,23.67
2019-03-23T15:02:23.089Z,26.27
2019-03-23T15:04:51.932Z,21.57
2019-03-23T15:07:20.768Z,23.33
2019-03-23T15:09:49.643Z,24.57
2019-03-23T15:12:18.480Z,23.70
2019-03-23T15:14:47.355Z,24.47
2019-03-23T15:17:16.183Z,23.80
2019-03-23T15:19:45.072Z,32.33
2019-03-23T15:22:13.908Z,22.87
2019-03-23T15:24:42.790Z,26.10
2019-03-23T15:27:11.625Z,28.43
2019-03-23T15:29:40.509Z,24.77
2019-03-23T15:32:09.392Z,22.30
2019-03-23T15:34:38.232Z,21.73
2019-03-23T15:37:07.080Z,25.57
2019-03-23T15:39:35.963Z,22.77
2019-03-23T15:42:04.809Z,21.90
2019-03-23T15:44:33.688Z,28.53
2019-03-23T15:47:02.523Z,22.27
2019-03-23T15:49:31.432Z,22.57
2019-03-23T15:52:00.248Z,20.87
2019-03-23T15:54:29.145Z,20.80
2019-03-23T15:56:57.984Z,20.53
2019-03-23T15:59:26.855Z,19.20
2019-03-23T16:01:55.744Z,22.10
2019-03-23T16:04:24.638Z,22.43
2019-03-23T16:06:53.526Z,20.17
2019-03-23T16:09:22.417Z,22.50
2019-03-23T16:11:51.308Z,21.03
2019-03-23T16:14:20.166Z,21.90
2019-03-23T16:16:49.009Z,21.93
2019-03-23T16:19:17.878Z,21.43
2019-03-23T16:21:46.710Z,22.17
2019-03-23T16:24:15.578Z,21.33
2019-03-23T16:26:44.415Z,23.43
2019-03-23T16:29:13.250Z,21.13
2019-03-23T16:31:42.130Z,22.43
2019-03-23T16:34:10.974Z,26.23
2019-03-23T16:36:39.846Z,23.60
2019-03-23T16:39:08.692Z,25.63
2019-03-23T16:41:37.567Z,27.50
2019-03-23T16:44:06.413Z,20.83
2019-03-23T16:46:35.283Z,21.37
2019-03-23T16:49:04.118Z,25.63
2019-03-23T16:51:32.990Z,18.40
2019-03-23T16:54:03.636Z,19.50
2019-03-23T16:56:32.359Z,17.27
2019-03-23T16:59:01.267Z,21.70
2019-03-23T17:01:30.161Z,15.83
2019-03-23T17:03:58.996Z,14.93
2019-03-23T17:06:27.882Z,19.83
2019-03-23T17:08:56.720Z,17.73
2019-03-23T17:11:25.587Z,14.43
2019-03-23T17:13:54.426Z,18.83
2019-03-23T17:16:23.299Z,17.80
2019-03-23T17:19:07.238Z,16.13
2019-03-23T17:21:36.112Z,15.73
2019-03-23T17:24:04.943Z,16.10
2019-03-23T17:26:33.816Z,15.30
2019-03-23T17:29:02.798Z,16.77
2019-03-23T17:31:31.619Z,14.17
2019-03-23T17:34:00.491Z,18.53
2019-03-23T17:36:44.458Z,13.33
2019-03-23T17:39:13.327Z,17.80
2019-03-23T17:41:42.317Z,15.17
2019-03-23T17:44:11.184Z,17.07
2019-03-23T17:46:40.100Z,16.60
2019-03-23T17:49:08.992Z,18.77
2019-03-23T17:51:37.882Z,17.47
2019-03-23T17:54:06.750Z,15.13
2019-03-23T17:56:35.665Z,17.50
2019-03-23T17:59:04.555Z,19.23
2019-03-23T18:01:33.424Z,19.03
2019-03-23T18:04:02.441Z,19.23
2019-03-23T18:06:31.415Z,20.43
2019-03-23T18:09:00.327Z,18.57
2019-03-23T18:11:29.319Z,19.57
2019-03-23T18:13:58.210Z,18.13
2019-03-23T18:16:27.204Z,16.77
2019-03-23T18:18:56.305Z,18.47
2019-03-23T18:21:25.154Z,24.53
2019-03-23T18:23:54.019Z,21.57
2019-03-23T18:26:22.886Z,19.00
2019-03-23T18:28:51.727Z,19.20
2019-03-23T18:31:20.595Z,18.60
2019-03-23T18:33:49.466Z,21.87
2019-03-23T18:36:18.302Z,22.87
2019-03-23T18:38:47.177Z,18.47
2019-03-23T18:41:17.072Z,34.40
2019-03-23T18:43:45.915Z,48.70
2019-03-23T18:46:14.778Z,42.60
2019-03-23T18:48:43.655Z,51.83
2019-03-23T18:51:12.489Z,46.57
2019-03-23T18:53:41.364Z,48.30
2019-03-23T18:56:10.236Z,43.27
2019-03-23T18:58:39.077Z,45.57
2019-03-23T19:01:07.956Z,55.60
2019-03-23T19:03:36.827Z,64.87
2019-03-23T19:06:05.660Z,56.30
2019-03-23T19:08:34.531Z,51.97
2019-03-23T19:11:03.406Z,39.20
2019-03-23T19:13:37.925Z,45.17
2019-03-23T19:16:02.764Z,32.63
2019-03-23T19:18:32.043Z,23.73
2019-03-23T19:21:00.875Z,29.83
2019-03-23T19:23:29.750Z,29.17
2019-03-23T19:25:58.631Z,25.10
2019-03-23T19:28:27.466Z,24.13
2019-03-23T19:30:56.344Z,27.97
2019-03-23T19:33:25.220Z,21.93
2019-03-23T19:35:54.166Z,21.57
2019-03-23T19:38:23.047Z,22.43
2019-03-23T19:40:51.884Z,22.47
2019-03-23T19:43:20.713Z,21.70
2019-03-23T19:45:49.584Z,21.63
2019-03-23T19:48:18.456Z,24.73
2019-03-23T19:50:47.300Z,21.70
2019-03-23T19:53:16.163Z,18.87
2019-03-23T19:55:45.071Z,19.60
2019-03-23T19:58:13.907Z,19.37
2019-03-23T20:00:42.793Z,18.80
2019-03-23T20:03:11.659Z,21.03
2019-03-23T20:05:52.583Z,18.07
2019-03-23T20:08:21.476Z,19.97
2019-03-23T20:10:50.325Z,21.10
2019-03-23T20:13:19.216Z,19.83
2019-03-23T20:15:48.143Z,19.87
2019-03-23T20:18:16.978Z,22.07
2019-03-23T20:21:03.947Z,22.30
2019-03-23T20:23:32.829Z,23.67
2019-03-23T20:26:01.647Z,23.40
2019-03-23T20:28:30.519Z,22.57
2019-03-23T20:30:59.387Z,19.53
2019-03-23T20:33:28.216Z,21.37
2019-03-23T20:35:57.083Z,24.67
2019-03-23T20:38:25.955Z,23.17
2019-03-23T20:40:54.783Z,20.43
2019-03-23T20:43:23.658Z,22.00
2019-03-23T20:45:52.524Z,19.23
2019-03-23T20:48:21.667Z,21.23
2019-03-23T20:50:50.639Z,19.43
2019-03-23T20:53:19.907Z,19.00
2019-03-23T20:55:48.749Z,20.37
2019-03-23T20:58:17.610Z,22.07
2019-03-23T21:00:46.483Z,19.63
2019-03-23T21:03:15.320Z,17.20
2019-03-23T21:05:44.192Z,21.10
2019-03-23T21:08:13.991Z,19.07
2019-03-23T21:10:42.824Z,20.17
2019-03-23T21:13:12.113Z,23.47
2019-03-23T21:15:44.231Z,17.97
2019-03-23T21:18:13.213Z,19.17
2019-03-23T21:20:42.054Z,18.20
2019-03-23T21:23:11.081Z,21.43
2019-03-23T21:25:39.917Z,20.40
2019-03-23T21:28:10.303Z,18.97
2019-03-23T21:30:39.217Z,20.90
2019-03-23T21:33:08.102Z,20.57
2019-03-23T21:35:37.199Z,21.10
2019-03-23T21:38:06.281Z,21.10
2019-03-23T21:40:35.313Z,23.07
2019-03-23T21:43:04.882Z,16.47
2019-03-23T21:45:33.851Z,19.20
2019-03-23T21:48:02.733Z,19.27
2019-03-23T21:50:31.663Z,19.33
2019-03-23T21:53:00.537Z,18.50
2019-03-23T21:55:29.359Z,17.57
2019-03-23T21:57:58.227Z,17.23
2019-03-23T22:00:32.640Z,19.60
2019-03-23T22:03:01.648Z,19.33
2019-03-23T22:05:30.746Z,18.33
2019-03-23T22:07:59.579Z,21.33
2019-03-23T22:10:28.767Z,20.20
2019-03-23T22:12:57.633Z,19.67
2019-03-23T22:15:28.139Z,18.97
2019-03-23T22:17:57.007Z,18.43
2019-03-23T22:20:25.879Z,20.93
2019-03-23T22:22:54.707Z,26.33
2019-03-23T22:25:23.584Z,22.07
2019-03-23T22:27:52.447Z,27.93
2019-03-23T22:30:21.275Z,26.53
2019-03-23T22:32:50.147Z,29.47
2019-03-23T22:35:19.019Z,28.10
2019-03-23T22:37:47.847Z,29.73
2019-03-23T22:40:16.815Z,31.03
2019-03-23T22:42:45.685Z,25.73
2019-03-23T22:45:14.521Z,32.70
2019-03-23T22:47:43.389Z,32.80
2019-03-23T22:50:12.958Z,31.93
2019-03-23T22:52:41.794Z,32.50
2019-03-23T22:55:11.064Z,35.10
2019-03-23T22:57:39.936Z,34.10
2019-03-23T23:00:12.007Z,34.70
2019-03-23T23:02:40.874Z,37.63
2019-03-23T23:05:09.950Z,37.93
2019-03-23T23:07:38.771Z,38.30
2019-03-23T23:10:07.843Z,37.17
2019-03-23T23:12:36.715Z,40.10
2019-03-23T23:15:08.727Z,45.67
2019-03-23T23:17:37.604Z,71.13
2019-03-23T23:20:07.672Z,50.77
2019-03-23T23:22:36.604Z,64.30
2019-03-23T23:25:08.371Z,72.30
2019-03-23T23:27:37.448Z,82.27
2019-03-23T23:30:08.679Z,102.80
2019-03-23T23:32:37.747Z,67.80
2019-03-23T23:35:08.523Z,42.37
2019-03-23T23:37:37.358Z,48.17
2019-03-23T23:40:07.125Z,41.23
2019-03-23T23:42:36.100Z,49.43
2019-03-23T23:45:15.368Z,41.47
2019-03-23T23:47:39.566Z,40.40
2019-03-23T23:50:09.038Z,42.27
2019-03-23T23:52:37.873Z,40.40
2019-03-23T23:55:07.357Z,39.03
2019-03-23T23:57:36.223Z,42.37
